createdAt,value
2022-11-26T00:00:50.794Z,23.40
2022-11-26T00:03:34.880Z,25.00
2022-11-26T00:06:17.024Z,23.80
2022-11-26T00:08:49.712Z,21.80
2022-11-26T00:11:22.378Z,21.70
2022-11-26T00:13:54.977Z,24.40
2022-11-26T00:16:27.989Z,20.50
2022-11-26T00:19:00.711Z,20.70
2022-11-26T00:21:35.048Z,21.20
2022-11-26T00:24:13.353Z,23.50
2022-11-26T00:26:45.876Z,22.10
2022-11-26T00:29:18.403Z,21.80
2022-11-26T00:31:51.057Z,21.70
2022-11-26T00:34:23.611Z,20.80
2022-11-26T00:36:56.230Z,19.00
2022-11-26T00:39:28.878Z,21.50
2022-11-26T00:42:01.505Z,21.10
2022-11-26T00:44:34.957Z,23.00
2022-11-26T00:47:07.782Z,22.20
2022-11-26T00:49:40.417Z,21.30
2022-11-26T00:52:34.985Z,21.10
2022-11-26T00:55:12.287Z,20.00
2022-11-26T00:57:45.117Z,21.70
2022-11-26T01:00:20.993Z,19.30
2022-11-26T01:02:54.249Z,22.30
2022-11-26T01:05:30.671Z,24.10
2022-11-26T01:08:19.665Z,22.70
2022-11-26T01:10:52.201Z,21.00
2022-11-26T01:13:24.812Z,21.90
2022-11-26T01:15:59.773Z,20.00
2022-11-26T01:18:37.067Z,23.40
2022-11-26T01:21:12.606Z,21.60
2022-11-26T01:23:45.552Z,22.10
2022-11-26T01:26:20.645Z,22.20
2022-11-26T01:28:53.337Z,19.90
2022-11-26T01:31:27.971Z,25.00
2022-11-26T01:34:00.456Z,23.00
2022-11-26T01:36:37.093Z,24.90
2022-11-26T01:39:15.310Z,19.20
2022-11-26T01:41:53.423Z,26.40
2022-11-26T01:44:28.541Z,23.00
2022-11-26T01:47:02.753Z,21.90
2022-11-26T01:49:36.248Z,20.80
2022-11-26T01:52:14.471Z,23.60
2022-11-26T01:54:48.231Z,23.30
2022-11-26T01:57:26.681Z,24.60
2022-11-26T02:00:02.568Z,24.50
2022-11-26T02:02:35.148Z,24.30
2022-11-26T02:05:13.774Z,22.40
2022-11-26T02:07:46.604Z,22.80
2022-11-26T02:10:18.917Z,23.40
2022-11-26T02:12:52.484Z,20.40
2022-11-26T02:15:29.120Z,21.30
2022-11-26T02:18:06.496Z,20.40
2022-11-26T02:20:49.565Z,23.30
2022-11-26T02:23:46.748Z,21.40
2022-11-26T02:26:45.928Z,22.40
2022-11-26T02:29:25.074Z,24.10
2022-11-26T02:32:01.859Z,21.50
2022-11-26T02:34:40.976Z,23.60
2022-11-26T02:37:17.951Z,22.70
2022-11-26T02:39:50.741Z,21.80
2022-11-26T02:42:27.876Z,21.70
2022-11-26T02:45:05.007Z,23.30
2022-11-26T02:47:39.729Z,21.60
2022-11-26T02:50:18.659Z,25.80
2022-11-26T02:52:54.501Z,25.90
2022-11-26T02:55:31.246Z,22.70
2022-11-26T02:58:04.464Z,20.40
2022-11-26T03:00:41.049Z,24.00
2022-11-26T03:03:23.199Z,21.20
2022-11-26T03:05:59.049Z,24.00
2022-11-26T03:08:32.384Z,20.90
2022-11-26T03:11:05.040Z,21.30
2022-11-26T03:13:37.561Z,22.20
2022-11-26T03:16:10.669Z,28.90
2022-11-26T03:18:43.189Z,22.70
2022-11-26T03:21:15.977Z,27.50
2022-11-26T03:23:48.522Z,23.40
2022-11-26T03:26:21.101Z,24.40
2022-11-26T03:28:54.084Z,21.80
2022-11-26T03:31:26.641Z,22.70
2022-11-26T03:33:59.084Z,26.70
2022-11-26T03:36:31.685Z,27.20
2022-11-26T03:39:04.646Z,28.70
2022-11-26T03:41:37.147Z,33.30
2022-11-26T03:44:09.660Z,29.10
2022-11-26T03:46:42.289Z,30.70
2022-11-26T03:49:14.789Z,31.30
2022-11-26T03:51:47.301Z,29.30
2022-11-26T03:54:19.813Z,31.40
2022-11-26T03:56:52.289Z,28.70
2022-11-26T03:59:24.777Z,30.20
2022-11-26T04:01:57.343Z,35.30
2022-11-26T04:04:30.035Z,29.40
2022-11-26T04:07:02.758Z,36.50
2022-11-26T04:09:35.291Z,33.90
2022-11-26T04:12:08.112Z,35.60
2022-11-26T04:14:40.983Z,26.90
2022-11-26T04:17:13.736Z,29.20
2022-11-26T04:19:46.169Z,31.60
2022-11-26T04:22:18.694Z,31.40
2022-11-26T04:24:51.205Z,32.90
2022-11-26T04:27:23.694Z,30.60
2022-11-26T04:29:56.196Z,31.10
2022-11-26T04:32:28.761Z,33.10
2022-11-26T04:35:01.369Z,32.20
2022-11-26T04:37:33.845Z,31.60
2022-11-26T04:40:07.795Z,33.00
2022-11-26T04:42:40.296Z,32.40
2022-11-26T04:45:14.404Z,28.90
2022-11-26T04:47:46.873Z,28.40
2022-11-26T04:50:19.484Z,30.70
2022-11-26T04:52:52.124Z,29.90
2022-11-26T04:55:24.716Z,29.60
2022-11-26T04:57:57.208Z,30.40
2022-11-26T05:00:29.873Z,32.80
2022-11-26T05:03:02.419Z,36.00
2022-11-26T05:05:35.057Z,32.80
2022-11-26T05:08:08.135Z,36.10
2022-11-26T05:10:40.657Z,39.10
2022-11-26T05:13:13.181Z,39.10
2022-11-26T05:15:45.613Z,36.20
2022-11-26T05:18:18.542Z,33.90
2022-11-26T05:20:51.055Z,34.00
2022-11-26T05:23:23.533Z,39.60
2022-11-26T05:25:56.082Z,35.00
2022-11-26T05:28:28.768Z,33.40
2022-11-26T05:31:05.737Z,32.30
2022-11-26T05:33:38.269Z,34.70
2022-11-26T05:36:11.414Z,33.10
2022-11-26T05:38:43.965Z,36.40
2022-11-26T05:41:16.466Z,35.00
2022-11-26T05:43:48.941Z,37.10
2022-11-26T05:46:22.520Z,36.20
2022-11-26T05:48:55.073Z,35.90
2022-11-26T05:51:27.545Z,41.60
2022-11-26T05:54:00.099Z,36.50
2022-11-26T05:56:32.703Z,39.20
2022-11-26T05:59:05.167Z,38.10
2022-11-26T06:01:37.821Z,39.10
2022-11-26T06:04:10.315Z,37.70
2022-11-26T06:06:42.797Z,38.20
2022-11-26T06:09:15.433Z,34.90
2022-11-26T06:11:49.806Z,34.50
2022-11-26T06:14:22.308Z,34.60
2022-11-26T06:16:54.873Z,37.00
2022-11-26T06:19:27.569Z,44.60
2022-11-26T06:22:00.145Z,39.40
2022-11-26T06:24:32.668Z,40.10
2022-11-26T06:27:05.343Z,38.40
2022-11-26T06:29:37.881Z,39.10
2022-11-26T06:32:10.470Z,38.50
2022-11-26T06:34:44.236Z,42.70
2022-11-26T06:37:17.178Z,41.00
2022-11-26T06:39:49.679Z,45.60
2022-11-26T06:42:22.216Z,41.70
2022-11-26T06:44:59.467Z,43.80
2022-11-26T06:47:32.362Z,37.50
2022-11-26T06:50:10.571Z,43.90
2022-11-26T06:52:43.427Z,43.20
2022-11-26T06:55:15.949Z,49.70
2022-11-26T06:57:50.146Z,47.90
2022-11-26T07:00:23.763Z,47.20
2022-11-26T07:02:56.333Z,50.30
2022-11-26T07:05:28.963Z,43.70
2022-11-26T07:08:01.473Z,45.40
2022-11-26T07:10:33.956Z,48.70
2022-11-26T07:13:06.465Z,54.30
2022-11-26T07:15:39.031Z,57.30
2022-11-26T07:18:11.538Z,48.80
2022-11-26T07:20:44.213Z,42.90
2022-11-26T07:23:16.697Z,51.70
2022-11-26T07:25:49.188Z,47.90
2022-11-26T07:28:21.765Z,55.80
2022-11-26T07:30:54.289Z,50.20
2022-11-26T07:33:26.941Z,48.80
2022-11-26T07:36:02.185Z,53.10
2022-11-26T07:38:35.986Z,57.70
2022-11-26T07:41:10.377Z,46.30
2022-11-26T07:43:44.480Z,51.50
2022-11-26T07:46:19.155Z,49.70
2022-11-26T07:48:52.545Z,52.20
2022-11-26T07:51:26.951Z,53.00
2022-11-26T07:54:01.218Z,44.90
2022-11-26T07:56:33.777Z,47.70
2022-11-26T07:59:06.711Z,50.40
2022-11-26T08:01:39.625Z,44.10
2022-11-26T08:04:12.135Z,54.90
2022-11-26T08:06:44.648Z,56.30
2022-11-26T08:09:17.740Z,72.30
2022-11-26T08:11:50.352Z,62.70
2022-11-26T08:14:23.188Z,50.20
2022-11-26T08:16:55.808Z,52.80
2022-11-26T08:19:28.681Z,52.20
2022-11-26T08:22:03.385Z,45.20
2022-11-26T08:24:36.307Z,48.80
2022-11-26T08:27:09.196Z,52.20
2022-11-26T08:29:41.872Z,55.90
2022-11-26T08:32:14.541Z,50.20
2022-11-26T08:34:47.132Z,61.00
2022-11-26T08:37:19.661Z,53.90
2022-11-26T08:39:52.232Z,51.60
2022-11-26T08:42:24.867Z,58.70
2022-11-26T08:44:57.366Z,52.20
2022-11-26T08:47:29.900Z,51.80
2022-11-26T08:50:02.578Z,57.70
2022-11-26T08:52:35.155Z,54.70
2022-11-26T08:55:08.448Z,63.90
2022-11-26T08:57:40.909Z,65.90
2022-11-26T09:00:15.617Z,60.60
2022-11-26T09:02:48.182Z,57.80
2022-11-26T09:05:20.730Z,56.80
2022-11-26T09:07:53.516Z,62.50
2022-11-26T09:10:26.122Z,62.60
2022-11-26T09:12:58.704Z,57.90
2022-11-26T09:15:31.283Z,56.20
2022-11-26T09:18:04.249Z,65.90
2022-11-26T09:20:36.717Z,71.50
2022-11-26T09:23:09.246Z,59.70
2022-11-26T09:25:42.356Z,57.00
2022-11-26T09:28:15.401Z,66.70
2022-11-26T09:30:47.877Z,58.10
2022-11-26T09:33:20.382Z,57.40
2022-11-26T09:35:52.881Z,56.80
2022-11-26T09:38:25.518Z,62.00
2022-11-26T09:41:02.430Z,55.40
2022-11-26T09:43:53.244Z,57.60
2022-11-26T09:46:41.193Z,62.80
2022-11-26T09:49:30.037Z,51.30
2022-11-26T09:52:04.973Z,53.90
2022-11-26T09:54:39.655Z,53.30
2022-11-26T09:57:23.192Z,49.60
2022-11-26T09:59:57.453Z,50.10
2022-11-26T10:02:30.251Z,49.90
2022-11-26T10:05:04.440Z,46.00
2022-11-26T10:07:56.092Z,46.90
2022-11-26T10:10:37.239Z,49.80
2022-11-26T10:13:20.849Z,46.00
2022-11-26T10:16:05.572Z,36.50
2022-11-26T10:18:47.947Z,48.10
2022-11-26T10:21:37.806Z,47.40
2022-11-26T10:24:26.917Z,48.20
2022-11-26T10:27:03.011Z,44.00
2022-11-26T10:29:42.706Z,46.00
2022-11-26T10:32:26.453Z,37.10
2022-11-26T10:35:00.103Z,40.80
2022-11-26T10:37:33.126Z,43.30
2022-11-26T10:40:19.990Z,40.20
2022-11-26T10:43:02.721Z,45.90
2022-11-26T10:45:41.692Z,42.00
2022-11-26T10:48:25.011Z,40.80
2022-11-26T10:51:09.373Z,43.40
2022-11-26T10:53:55.965Z,43.70
2022-11-26T10:56:37.832Z,44.20
2022-11-26T10:59:25.231Z,48.70
2022-11-26T11:02:03.101Z,49.40
2022-11-26T11:04:40.707Z,43.90
2022-11-26T11:07:33.167Z,46.70
2022-11-26T11:10:16.757Z,49.10
2022-11-26T11:12:52.167Z,41.50
2022-11-26T11:15:28.681Z,51.70
2022-11-26T11:18:04.521Z,56.60
2022-11-26T11:20:40.604Z,49.80
2022-11-26T11:23:45.705Z,43.90
2022-11-26T11:26:23.976Z,49.10
2022-11-26T11:28:58.397Z,45.90
2022-11-26T11:31:46.230Z,44.60
2022-11-26T11:34:25.684Z,48.00
2022-11-26T11:37:08.693Z,54.50
2022-11-26T11:39:46.502Z,49.80
2022-11-26T11:42:28.522Z,43.50
2022-11-26T11:45:05.392Z,42.70
2022-11-26T11:47:44.252Z,44.80
2022-11-26T11:50:24.290Z,48.70
2022-11-26T11:53:09.057Z,50.30
2022-11-26T11:56:02.078Z,48.90
2022-11-26T11:59:02.448Z,43.30
2022-11-26T12:01:48.947Z,43.30
2022-11-26T12:04:37.004Z,43.00
2022-11-26T12:07:41.511Z,46.30
2022-11-26T12:10:24.321Z,38.70
2022-11-26T12:13:01.733Z,53.30
2022-11-26T12:15:43.107Z,56.30
2022-11-26T12:18:24.500Z,56.10
2022-11-26T12:21:01.772Z,56.80
2022-11-26T12:23:39.717Z,46.90
2022-11-26T12:26:19.085Z,52.20
2022-11-26T12:29:08.086Z,46.40
2022-11-26T12:31:46.916Z,55.20
2022-11-26T12:34:25.528Z,64.70
2022-11-26T12:37:03.257Z,49.20
2022-11-26T12:39:53.918Z,55.60
2022-11-26T12:42:31.744Z,53.40
2022-11-26T12:45:17.707Z,55.40
2022-11-26T12:47:56.691Z,51.60
2022-11-26T12:50:40.531Z,58.70
2022-11-26T12:53:26.588Z,52.00
2022-11-26T12:56:06.472Z,61.70
2022-11-26T12:58:54.054Z,57.70
2022-11-26T13:01:27.609Z,57.90
2022-11-26T13:04:36.219Z,47.30
2022-11-26T13:07:09.000Z,55.90
2022-11-26T13:10:03.108Z,56.30
2022-11-26T13:12:49.449Z,58.10
2022-11-26T13:15:27.800Z,60.20
2022-11-26T13:18:05.418Z,51.10
2022-11-26T13:20:52.065Z,48.20
2022-11-26T13:23:35.306Z,52.00
2022-11-26T13:26:24.949Z,51.70
2022-11-26T13:29:21.241Z,44.80
2022-11-26T13:32:16.596Z,59.30
2022-11-26T13:35:06.801Z,52.10
2022-11-26T13:37:56.378Z,48.50
2022-11-26T13:40:58.881Z,48.80
2022-11-26T13:44:14.244Z,51.10
2022-11-26T13:46:52.589Z,52.30
2022-11-26T13:49:33.041Z,61.80
2022-11-26T13:52:11.493Z,49.30
2022-11-26T13:54:48.620Z,54.50
2022-11-26T13:57:25.745Z,54.80
2022-11-26T14:00:00.156Z,50.00
2022-11-26T14:02:44.908Z,48.80
2022-11-26T14:05:19.228Z,45.30
2022-11-26T14:07:53.354Z,52.30
2022-11-26T14:10:45.136Z,48.00
2022-11-26T14:13:18.457Z,43.80
2022-11-26T14:16:00.570Z,53.50
2022-11-26T14:19:01.929Z,45.40
2022-11-26T14:21:54.548Z,51.20
2022-11-26T14:24:56.343Z,43.80
2022-11-26T14:27:32.703Z,44.80
2022-11-26T14:30:33.169Z,43.10
2022-11-26T14:33:15.336Z,47.60
2022-11-26T14:35:58.746Z,65.90
2022-11-26T14:38:35.524Z,52.20
2022-11-26T14:41:08.196Z,54.10
2022-11-26T14:43:40.757Z,54.10
2022-11-26T14:46:19.058Z,47.20
2022-11-26T14:48:59.609Z,57.40
2022-11-26T14:51:33.581Z,55.50
2022-11-26T14:54:08.676Z,53.20
2022-11-26T14:56:46.371Z,62.90
2022-11-26T14:59:20.496Z,55.30
2022-11-26T15:01:54.203Z,55.20
2022-11-26T15:04:29.029Z,48.20
2022-11-26T15:07:02.120Z,55.80
2022-11-26T15:09:35.388Z,56.70
2022-11-26T15:12:16.192Z,51.40
2022-11-26T15:14:54.745Z,50.50
2022-11-26T15:17:30.704Z,54.70
2022-11-26T15:20:10.109Z,60.70
2022-11-26T15:22:49.474Z,51.80
2022-11-26T15:25:25.330Z,60.00
2022-11-26T15:28:01.494Z,54.40
2022-11-26T15:30:36.924Z,52.50
2022-11-26T15:33:15.830Z,61.40
2022-11-26T15:35:50.613Z,53.00
2022-11-26T15:38:25.396Z,52.20
2022-11-26T15:41:04.890Z,59.90
2022-11-26T15:43:43.873Z,67.10
2022-11-26T15:46:20.067Z,60.60
2022-11-26T15:48:55.937Z,60.50
2022-11-26T15:51:36.055Z,55.70
2022-11-26T15:54:21.804Z,59.90
2022-11-26T15:56:57.166Z,65.60
2022-11-26T15:59:34.453Z,61.30
2022-11-26T16:02:18.864Z,55.60
2022-11-26T16:04:54.614Z,61.30
2022-11-26T16:07:30.644Z,70.90
2022-11-26T16:10:35.722Z,60.80
2022-11-26T16:13:28.479Z,72.80
2022-11-26T16:16:06.937Z,57.80
2022-11-26T16:18:45.503Z,59.00
2022-11-26T16:21:24.394Z,71.40
2022-11-26T16:24:02.034Z,59.50
2022-11-26T16:26:52.985Z,59.60
2022-11-26T16:29:26.344Z,58.50
2022-11-26T16:31:59.290Z,60.30
2022-11-26T16:34:31.972Z,72.40
2022-11-26T16:37:19.545Z,72.40
2022-11-26T16:39:53.617Z,63.00
2022-11-26T16:42:26.830Z,56.80
2022-11-26T16:45:03.965Z,82.30
2022-11-26T16:47:41.304Z,90.60
2022-11-26T16:50:20.377Z,66.50
2022-11-26T16:52:53.318Z,61.40
2022-11-26T16:55:28.406Z,48.60
2022-11-26T16:58:02.661Z,54.30
2022-11-26T17:00:37.037Z,61.70
2022-11-26T17:03:13.084Z,69.50
2022-11-26T17:05:47.188Z,67.50
2022-11-26T17:08:19.795Z,73.90
2022-11-26T17:10:52.501Z,64.60
2022-11-26T17:13:25.755Z,62.50
2022-11-26T17:15:59.309Z,62.90
2022-11-26T17:18:33.196Z,73.60
2022-11-26T17:21:06.488Z,66.70
2022-11-26T17:23:40.427Z,64.90
2022-11-26T17:26:20.878Z,59.40
2022-11-26T17:28:53.772Z,63.20
2022-11-26T17:31:26.996Z,56.90
2022-11-26T17:33:59.869Z,52.30
2022-11-26T17:36:36.952Z,55.20
2022-11-26T17:39:12.934Z,59.80
2022-11-26T17:41:45.496Z,63.20
2022-11-26T17:44:18.624Z,59.00
2022-11-26T17:47:15.959Z,62.70
2022-11-26T17:49:43.884Z,53.80
2022-11-26T17:52:16.733Z,51.80
2022-11-26T17:54:49.373Z,56.70
2022-11-26T17:57:22.981Z,54.00
2022-11-26T17:59:56.141Z,49.60
2022-11-26T18:02:28.814Z,52.20
2022-11-26T18:05:01.341Z,43.10
2022-11-26T18:07:34.037Z,53.20
2022-11-26T18:10:09.507Z,46.40
2022-11-26T18:12:43.272Z,47.60
2022-11-26T18:15:24.132Z,54.10
2022-11-26T18:17:58.281Z,52.10
2022-11-26T18:20:32.051Z,53.90
2022-11-26T18:23:04.744Z,53.60
2022-11-26T18:25:37.339Z,50.00
2022-11-26T18:28:09.918Z,53.90
2022-11-26T18:30:43.072Z,56.10
2022-11-26T18:33:17.150Z,53.50
2022-11-26T18:35:53.443Z,65.50
2022-11-26T18:38:29.132Z,54.50
2022-11-26T18:41:06.637Z,53.80
2022-11-26T18:43:40.642Z,62.20
2022-11-26T18:46:16.965Z,54.80
2022-11-26T18:48:51.190Z,58.80
2022-11-26T18:51:24.416Z,60.80
2022-11-26T18:53:56.951Z,58.50
2022-11-26T18:56:29.648Z,62.00
2022-11-26T18:59:02.480Z,59.90
2022-11-26T19:01:35.678Z,56.50
2022-11-26T19:04:08.351Z,57.60
2022-11-26T19:06:42.034Z,56.90
2022-11-26T19:09:19.263Z,59.50
2022-11-26T19:11:54.272Z,50.20
2022-11-26T19:14:28.630Z,68.40
2022-11-26T19:17:04.383Z,58.70
2022-11-26T19:19:38.725Z,55.80
2022-11-26T19:22:11.789Z,62.50
2022-11-26T19:24:44.572Z,58.80
2022-11-26T19:27:17.353Z,56.30
2022-11-26T19:29:50.093Z,57.70
2022-11-26T19:32:22.808Z,62.30
2022-11-26T19:34:55.435Z,61.20
2022-11-26T19:37:28.003Z,61.20
2022-11-26T19:40:00.712Z,57.80
2022-11-26T19:42:34.845Z,57.30
2022-11-26T19:45:08.434Z,54.30
2022-11-26T19:47:41.176Z,61.10
2022-11-26T19:50:14.358Z,52.90
2022-11-26T19:52:48.467Z,58.40
2022-11-26T19:55:23.097Z,60.20
2022-11-26T19:57:55.706Z,51.20
2022-11-26T20:00:28.380Z,53.70
2022-11-26T20:03:01.516Z,61.00
2022-11-26T20:05:34.375Z,57.70
2022-11-26T20:08:08.261Z,57.90
2022-11-26T20:10:43.568Z,52.80
2022-11-26T20:13:18.427Z,61.20
2022-11-26T20:15:50.884Z,54.40
2022-11-26T20:18:23.484Z,59.20
2022-11-26T20:21:03.180Z,55.10
2022-11-26T20:23:35.781Z,50.70
2022-11-26T20:26:17.824Z,52.00
2022-11-26T20:28:51.113Z,49.90
2022-11-26T20:31:24.770Z,53.90
2022-11-26T20:33:58.053Z,47.50
2022-11-26T20:36:30.748Z,56.00
2022-11-26T20:39:04.364Z,54.70
2022-11-26T20:41:37.302Z,50.50
2022-11-26T20:44:10.463Z,55.80
2022-11-26T20:46:43.434Z,50.90
2022-11-26T20:49:16.316Z,50.00
2022-11-26T20:51:49.909Z,46.70
2022-11-26T20:54:22.574Z,52.60
2022-11-26T20:56:55.049Z,54.70
2022-11-26T20:59:28.186Z,47.90
2022-11-26T21:02:02.245Z,50.80
2022-11-26T21:04:35.088Z,55.50
2022-11-26T21:07:07.841Z,55.10
2022-11-26T21:09:41.163Z,50.00
2022-11-26T21:12:13.889Z,45.00
2022-11-26T21:14:46.780Z,54.00
2022-11-26T21:17:19.795Z,46.50
2022-11-26T21:19:52.695Z,54.10
2022-11-26T21:22:25.896Z,49.20
2022-11-26T21:24:59.199Z,55.60
2022-11-26T21:27:34.062Z,55.10
2022-11-26T21:30:11.472Z,62.20
2022-11-26T21:32:45.135Z,56.80
2022-11-26T21:35:18.471Z,54.70
2022-11-26T21:37:51.800Z,51.10
2022-11-26T21:40:24.895Z,49.10
2022-11-26T21:42:57.926Z,46.00
2022-11-26T21:45:30.904Z,52.00
2022-11-26T21:48:05.021Z,44.60
2022-11-26T21:50:38.061Z,45.30
2022-11-26T21:53:11.729Z,45.50
2022-11-26T21:55:45.364Z,42.10
2022-11-26T21:58:17.976Z,45.30
2022-11-26T22:00:51.074Z,44.30
2022-11-26T22:03:23.714Z,45.70
2022-11-26T22:05:59.257Z,46.10
2022-11-26T22:08:32.303Z,57.60
2022-11-26T22:11:11.145Z,46.90
2022-11-26T22:13:44.348Z,37.60
2022-11-26T22:16:18.837Z,46.80
2022-11-26T22:18:52.339Z,45.40
2022-11-26T22:21:29.285Z,46.80
2022-11-26T22:24:03.447Z,40.80
2022-11-26T22:26:37.314Z,45.90
2022-11-26T22:29:12.169Z,45.10
2022-11-26T22:31:45.326Z,48.50
2022-11-26T22:34:22.153Z,48.10
2022-11-26T22:36:55.028Z,44.20
2022-11-26T22:39:27.599Z,41.40
2022-11-26T22:42:02.156Z,42.10
2022-11-26T22:44:37.278Z,42.70
2022-11-26T22:47:12.368Z,43.80
2022-11-26T22:49:44.997Z,45.70
2022-11-26T22:52:17.680Z,45.90
2022-11-26T22:54:50.346Z,38.60
2022-11-26T22:57:25.510Z,45.40
2022-11-26T22:59:58.487Z,43.70
2022-11-26T23:02:31.236Z,42.90
2022-11-26T23:05:03.921Z,41.50
2022-11-26T23:07:37.898Z,42.30
2022-11-26T23:10:12.265Z,42.40
2022-11-26T23:12:44.846Z,38.10
2022-11-26T23:15:17.480Z,40.00
2022-11-26T23:17:50.108Z,38.30
2022-11-26T23:20:22.964Z,39.50
2022-11-26T23:22:56.140Z,38.50
2022-11-26T23:25:28.530Z,39.20
2022-11-26T23:28:01.250Z,37.20
2022-11-26T23:30:34.144Z,36.10
2022-11-26T23:33:06.743Z,40.50
2022-11-26T23:35:39.429Z,38.50
2022-11-26T23:38:11.913Z,38.10
2022-11-26T23:40:44.438Z,31.20
2022-11-26T23:43:17.462Z,34.30
2022-11-26T23:45:51.379Z,35.00
2022-11-26T23:48:24.125Z,33.00
2022-11-26T23:50:56.692Z,32.80
2022-11-26T23:53:29.950Z,27.00
2022-11-26T23:56:08.192Z,32.20
2022-11-26T23:58:41.221Z,28.10
